Time;durP1;ratioP1;P1;durP2;ratioP2;P2;SDS_P1;SDS_P2;PMS_P1;PMS_P2;Temp;Humidity;BMP_temperature;BMP_pressure;BME280_temperature;BME280_humidity;BME280_pressure;Samples;Min_cycle;Max_cycle;Signal;HPM_P1;HPM_P2
2024/01/17 00:00:28;;;;;;;48.53;20.23;;;;;;;;;;5071746;28;20369;-72
2024/01/17 00:02:54;;;;;;;39.53;21.55;;;;;;;;;;5071786;28;20125;-72
2024/01/17 00:05:20;;;;;;;47.60;21.90;;;;;;;;;;5071113;28;20133;-71
2024/01/17 00:07:46;;;;;;;46.15;22.05;;;;;;;;;;5071615;28;20079;-71
2024/01/17 00:10:12;;;;;;;50.67;22.65;;;;;;;;;;5071666;28;20032;-72
2024/01/17 00:12:38;;;;;;;51.13;21.73;;;;;;;;;;5070823;28;20047;-72
2024/01/17 00:15:04;;;;;;;48.15;21.70;;;;;;;;;;5067683;28;20021;-71
2024/01/17 00:17:30;;;;;;;49.80;23.15;;;;;;;;;;5070137;28;20112;-71
2024/01/17 00:19:56;;;;;;;50.30;22.88;;;;;;;;;;5070314;28;20085;-71
2024/01/17 00:22:22;;;;;;;51.97;22.83;;;;;;;;;;5070302;28;20035;-71
2024/01/17 00:24:49;;;;;;;41.92;22.33;;;;;;;;;;5069515;28;20562;-72
2024/01/17 00:27:15;;;;;;;50.28;22.67;;;;;;;;;;5069607;28;20025;-71
2024/01/17 00:29:41;;;;;;;47.15;23.52;;;;;;;;;;5070395;28;20055;-71
2024/01/17 00:32:07;;;;;;;48.92;24.10;;;;;;;;;;5070475;28;20507;-71
2024/01/17 00:34:33;;;;;;;48.35;24.13;;;;;;;;;;5068950;28;20134;-72
2024/01/17 00:36:59;;;;;;;50.17;23.05;;;;;;;;;;5069900;28;20028;-72
2024/01/17 00:39:25;;;;;;;50.17;23.23;;;;;;;;;;5069433;28;20020;-71
2024/01/17 00:41:51;;;;;;;54.85;24.30;;;;;;;;;;5070322;28;20438;-73
2024/01/17 00:44:18;;;;;;;47.97;23.55;;;;;;;;;;5069478;28;20044;-72
2024/01/17 00:46:45;;;;;;;58.35;24.13;;;;;;;;;;5068342;28;20027;-73
2024/01/17 00:49:11;;;;;;;49.83;22.75;;;;;;;;;;5070360;28;20116;-71
2024/01/17 00:51:37;;;;;;;48.88;23.13;;;;;;;;;;5070166;28;20029;-71
2024/01/17 00:54:03;;;;;;;45.20;21.75;;;;;;;;;;5069106;28;20380;-71
2024/01/17 00:56:32;;;;;;;51.78;23.13;;;;;;;;;;5069552;28;20046;-72
2024/01/17 00:58:58;;;;;;;55.25;22.80;;;;;;;;;;5069359;28;20396;-71
2024/01/17 01:01:24;;;;;;;54.63;22.50;;;;;;;;;;5067429;28;20279;-71
2024/01/17 01:03:50;;;;;;;48.70;23.20;;;;;;;;;;5070138;28;20441;-71
2024/01/17 01:06:16;;;;;;;53.97;22.70;;;;;;;;;;5072066;28;20025;-72
2024/01/17 01:08:42;;;;;;;42.50;21.90;;;;;;;;;;5073643;28;20480;-72
2024/01/17 01:11:08;;;;;;;50.35;21.92;;;;;;;;;;5073372;28;20032;-71
2024/01/17 01:13:34;;;;;;;56.92;22.65;;;;;;;;;;5073537;28;20024;-71
2024/01/17 01:16:00;;;;;;;46.67;21.77;;;;;;;;;;5072791;28;20119;-71
2024/01/17 01:18:26;;;;;;;44.42;21.85;;;;;;;;;;5071934;28;20195;-72
2024/01/17 01:20:52;;;;;;;48.08;21.40;;;;;;;;;;5073496;28;20112;-73
2024/01/17 01:23:18;;;;;;;47.53;22.13;;;;;;;;;;5073706;28;20028;-73
2024/01/17 01:25:44;;;;;;;42.33;20.42;;;;;;;;;;5072785;28;20373;-72
2024/01/17 01:28:10;;;;;;;36.50;19.98;;;;;;;;;;5073737;28;20103;-72
2024/01/17 01:30:36;;;;;;;44.78;21.58;;;;;;;;;;5073183;28;20131;-71
2024/01/17 01:33:02;;;;;;;44.05;20.73;;;;;;;;;;5073958;28;20068;-71
2024/01/17 01:35:28;;;;;;;42.83;20.42;;;;;;;;;;5072602;28;20387;-72
2024/01/17 01:37:54;;;;;;;38.22;20.10;;;;;;;;;;5072899;28;20115;-72
2024/01/17 01:40:20;;;;;;;47.17;20.83;;;;;;;;;;5072895;28;20074;-72
2024/01/17 01:42:47;;;;;;;39.83;20.30;;;;;;;;;;5074132;28;20491;-73
2024/01/17 01:45:13;;;;;;;41.63;19.23;;;;;;;;;;5073530;28;20036;-71
2024/01/17 01:47:39;;;;;;;42.90;20.85;;;;;;;;;;5074132;28;20506;-71
2024/01/17 01:50:06;;;;;;;45.30;20.25;;;;;;;;;;5072706;28;20426;-72
2024/01/17 01:52:33;;;;;;;43.10;21.52;;;;;;;;;;5072482;28;20511;-71
2024/01/17 01:54:59;;;;;;;44.13;20.17;;;;;;;;;;5073322;28;20024;-71
2024/01/17 01:57:26;;;;;;;41.03;20.70;;;;;;;;;;5073648;28;20025;-72
2024/01/17 01:59:52;;;;;;;48.20;20.60;;;;;;;;;;5073926;28;20372;-71
2024/01/17 02:02:18;;;;;;;44.80;20.45;;;;;;;;;;5074012;28;20453;-72
2024/01/17 02:04:44;;;;;;;43.10;19.48;;;;;;;;;;5073225;28;20454;-71
2024/01/17 02:07:11;;;;;;;39.72;20.05;;;;;;;;;;5073867;28;20094;-73
2024/01/17 02:09:39;;;;;;;45.47;20.42;;;;;;;;;;5074009;28;20032;-73
2024/01/17 02:12:05;;;;;;;44.78;19.73;;;;;;;;;;5073146;28;20039;-72
2024/01/17 02:14:31;;;;;;;46.00;19.23;;;;;;;;;;5073198;28;20021;-72
2024/01/17 02:16:57;;;;;;;44.28;19.73;;;;;;;;;;5072201;28;20048;-72
2024/01/17 02:19:26;;;;;;;44.10;19.80;;;;;;;;;;5073145;28;20044;-71
2024/01/17 02:21:52;;;;;;;41.42;19.98;;;;;;;;;;5073952;28;20051;-78
2024/01/17 02:24:22;;;;;;;50.95;21.30;;;;;;;;;;5070986;28;20060;-73
2024/01/17 02:26:48;;;;;;;44.65;21.40;;;;;;;;;;5071761;28;20470;-73
2024/01/17 02:29:14;;;;;;;41.95;19.70;;;;;;;;;;5073647;28;20033;-72
2024/01/17 02:31:41;;;;;;;49.45;20.30;;;;;;;;;;5078301;28;20039;-73
2024/01/17 02:34:07;;;;;;;44.88;20.25;;;;;;;;;;5075589;28;20492;-75
2024/01/17 02:36:33;;;;;;;46.30;20.42;;;;;;;;;;5077978;28;20067;-74
2024/01/17 02:38:59;;;;;;;42.40;19.58;;;;;;;;;;5075199;28;20020;-74
2024/01/17 02:41:25;;;;;;;41.97;19.40;;;;;;;;;;5092922;28;20023;-74
2024/01/17 02:43:51;;;;;;;40.25;19.13;;;;;;;;;;5084971;28;20154;-74
2024/01/17 02:46:17;;;;;;;47.97;20.90;;;;;;;;;;5072356;28;20070;-74
2024/01/17 02:48:43;;;;;;;43.15;20.52;;;;;;;;;;5072921;28;20033;-73
2024/01/17 02:51:09;;;;;;;47.20;19.88;;;;;;;;;;5072260;28;20040;-73
2024/01/17 02:53:35;;;;;;;43.80;19.25;;;;;;;;;;5072337;28;20105;-73
2024/01/17 02:56:01;;;;;;;35.10;18.23;;;;;;;;;;5071783;28;20101;-73
2024/01/17 02:58:27;;;;;;;43.97;18.15;;;;;;;;;;5074181;28;20056;-73
2024/01/17 03:00:53;;;;;;;42.85;18.38;;;;;;;;;;5075933;28;20079;-73
2024/01/17 03:03:19;;;;;;;41.33;18.33;;;;;;;;;;5073825;28;20033;-73
2024/01/17 03:05:45;;;;;;;41.38;18.48;;;;;;;;;;5074527;28;20044;-72
2024/01/17 03:08:11;;;;;;;42.58;18.73;;;;;;;;;;5074593;28;20064;-72
2024/01/17 03:10:37;;;;;;;44.05;18.65;;;;;;;;;;5074951;28;20047;-72
2024/01/17 03:13:03;;;;;;;44.78;18.52;;;;;;;;;;5074687;28;20064;-73
2024/01/17 03:15:29;;;;;;;38.67;17.42;;;;;;;;;;5073561;28;20077;-74
2024/01/17 03:17:55;;;;;;;40.00;18.95;;;;;;;;;;5073454;28;20021;-73
2024/01/17 03:20:22;;;;;;;33.95;17.40;;;;;;;;;;5072433;28;20027;-72
2024/01/17 03:22:47;;;;;;;47.65;18.77;;;;;;;;;;5071525;28;20032;-73
2024/01/17 03:25:16;;;;;;;43.50;18.13;;;;;;;;;;5071197;28;20142;-72
2024/01/17 03:27:42;;;;;;;34.17;17.70;;;;;;;;;;5072398;28;20434;-72
2024/01/17 03:30:08;;;;;;;47.25;18.05;;;;;;;;;;5073288;28;20025;-74
2024/01/17 03:32:34;;;;;;;39.00;18.90;;;;;;;;;;5071506;28;20034;-73
2024/01/17 03:35:00;;;;;;;42.95;18.80;;;;;;;;;;5073614;28;20025;-72
2024/01/17 03:37:26;;;;;;;47.03;19.63;;;;;;;;;;5068421;28;20028;-71
2024/01/17 03:39:52;;;;;;;42.83;19.52;;;;;;;;;;5073424;28;20024;-74
2024/01/17 03:42:22;;;;;;;47.10;20.58;;;;;;;;;;5071707;28;20472;-74
2024/01/17 03:44:48;;;;;;;50.03;21.00;;;;;;;;;;5070618;28;20021;-78
2024/01/17 03:50:26;;;;;;;39.65;19.50;;;;;;;;;;5074939;28;20035;-73
2024/01/17 03:52:54;;;;;;;43.53;19.73;;;;;;;;;;5072136;28;20028;-72
2024/01/17 03:55:20;;;;;;;40.88;20.27;;;;;;;;;;5068816;28;20021;-73
2024/01/17 03:57:46;;;;;;;39.65;20.63;;;;;;;;;;5071073;28;20376;-76
2024/01/17 04:00:12;;;;;;;43.17;21.17;;;;;;;;;;5071276;28;20024;-77
2024/01/17 04:02:38;;;;;;;39.25;20.30;;;;;;;;;;5071677;28;20021;-74
2024/01/17 04:05:04;;;;;;;44.42;20.92;;;;;;;;;;5068843;28;20495;-73
2024/01/17 04:07:30;;;;;;;47.83;21.52;;;;;;;;;;5071509;28;20547;-73
2024/01/17 04:09:56;;;;;;;45.97;20.35;;;;;;;;;;5071477;28;20159;-73
2024/01/17 04:12:22;;;;;;;46.15;20.70;;;;;;;;;;5071957;28;20082;-72
2024/01/17 04:14:48;;;;;;;50.85;21.75;;;;;;;;;;5071361;28;20472;-72
2024/01/17 04:17:14;;;;;;;48.70;20.90;;;;;;;;;;5071151;28;20028;-73
2024/01/17 04:19:41;;;;;;;42.28;21.30;;;;;;;;;;5072091;28;20029;-73
2024/01/17 04:22:07;;;;;;;49.90;22.17;;;;;;;;;;5071484;28;20025;-71
2024/01/17 04:24:33;;;;;;;48.90;21.63;;;;;;;;;;5076103;28;20047;-73
2024/01/17 04:26:59;;;;;;;42.72;21.17;;;;;;;;;;5074349;28;20084;-72
2024/01/17 04:29:25;;;;;;;43.67;22.13;;;;;;;;;;5075771;28;20036;-73
2024/01/17 04:31:52;;;;;;;43.75;22.50;;;;;;;;;;5076046;28;20024;-73
2024/01/17 04:34:18;;;;;;;51.08;22.08;;;;;;;;;;5079389;28;20017;-73
2024/01/17 04:36:44;;;;;;;45.95;21.70;;;;;;;;;;5079526;28;20111;-72
2024/01/17 04:39:10;;;;;;;46.08;22.00;;;;;;;;;;5082613;28;20078;-75
2024/01/17 04:41:36;;;;;;;46.35;21.48;;;;;;;;;;5086076;28;20025;-72
2024/01/17 04:44:02;;;;;;;49.33;22.52;;;;;;;;;;5087279;28;20025;-71
2024/01/17 04:46:29;;;;;;;47.95;23.42;;;;;;;;;;5093964;28;20025;-71
2024/01/17 04:48:55;;;;;;;47.53;22.77;;;;;;;;;;5093753;28;20020;-72
2024/01/17 04:51:22;;;;;;;47.28;21.90;;;;;;;;;;5078862;28;20032;-71
2024/01/17 04:53:49;;;;;;;52.17;22.70;;;;;;;;;;5076035;28;20476;-73
2024/01/17 04:56:16;;;;;;;44.55;21.05;;;;;;;;;;5075069;28;20060;-72
2024/01/17 04:58:43;;;;;;;43.67;21.30;;;;;;;;;;5076837;28;20032;-77
2024/01/17 05:01:09;;;;;;;46.78;21.98;;;;;;;;;;5076687;28;20103;-73
2024/01/17 05:03:36;;;;;;;45.38;21.55;;;;;;;;;;5077262;28;20031;-73
2024/01/17 05:06:02;;;;;;;44.00;21.52;;;;;;;;;;5074403;28;20107;-72
2024/01/17 05:08:28;;;;;;;41.75;20.60;;;;;;;;;;5074436;28;20490;-71
2024/01/17 05:10:55;;;;;;;42.70;20.63;;;;;;;;;;5074194;28;20082;-72
2024/01/17 05:13:21;;;;;;;41.50;21.10;;;;;;;;;;5074022;28;20029;-72
2024/01/17 05:15:47;;;;;;;48.65;20.83;;;;;;;;;;5074369;28;20052;-72
2024/01/17 05:18:13;;;;;;;41.42;20.20;;;;;;;;;;5074238;28;20021;-71
2024/01/17 05:20:39;;;;;;;56.80;20.75;;;;;;;;;;5074007;28;20112;-72
2024/01/17 05:23:05;;;;;;;44.85;19.75;;;;;;;;;;5074045;28;20029;-72
2024/01/17 05:25:31;;;;;;;46.13;21.15;;;;;;;;;;5075520;28;20082;-72
2024/01/17 05:27:57;;;;;;;47.25;20.35;;;;;;;;;;5075726;28;20043;-74
2024/01/17 05:30:23;;;;;;;45.58;19.35;;;;;;;;;;5074505;28;20020;-72
2024/01/17 05:32:49;;;;;;;38.67;19.13;;;;;;;;;;5075321;28;20020;-72
2024/01/17 05:35:16;;;;;;;45.05;19.77;;;;;;;;;;5061907;28;20028;-73
2024/01/17 05:37:42;;;;;;;48.60;22.35;;;;;;;;;;5074980;28;20028;-72
2024/01/17 05:40:09;;;;;;;42.58;19.85;;;;;;;;;;5076040;28;20387;-74
2024/01/17 05:42:36;;;;;;;46.13;19.50;;;;;;;;;;5073361;28;20020;-71
2024/01/17 05:45:02;;;;;;;40.25;18.70;;;;;;;;;;5077729;28;20450;-71
2024/01/17 05:47:28;;;;;;;43.70;20.02;;;;;;;;;;5073748;28;20395;-71
2024/01/17 05:49:54;;;;;;;40.40;18.58;;;;;;;;;;5073337;28;20024;-72
2024/01/17 05:52:20;;;;;;;37.97;19.40;;;;;;;;;;5074258;28;20106;-72
2024/01/17 05:54:46;;;;;;;37.33;17.90;;;;;;;;;;5074478;28;20107;-73
2024/01/17 05:57:12;;;;;;;40.38;18.38;;;;;;;;;;5076777;28;20055;-74
2024/01/17 05:59:38;;;;;;;44.08;17.35;;;;;;;;;;5073237;28;20388;-73
2024/01/17 06:02:04;;;;;;;37.72;17.85;;;;;;;;;;5074146;28;20021;-74
2024/01/17 06:04:30;;;;;;;37.55;17.55;;;;;;;;;;5072883;28;20509;-72
2024/01/17 06:06:58;;;;;;;42.50;17.92;;;;;;;;;;5073406;28;20017;-71
2024/01/17 06:09:24;;;;;;;33.55;17.40;;;;;;;;;;5073149;28;20076;-73
2024/01/17 06:11:50;;;;;;;36.50;17.10;;;;;;;;;;5072780;28;20016;-72
2024/01/17 06:14:16;;;;;;;44.17;16.48;;;;;;;;;;5074635;28;20365;-73
2024/01/17 06:16:42;;;;;;;36.05;17.00;;;;;;;;;;5074081;28;20055;-72
2024/01/17 06:19:08;;;;;;;32.00;16.25;;;;;;;;;;5077744;28;20506;-74
2024/01/17 06:21:34;;;;;;;33.33;15.90;;;;;;;;;;5078116;28;20115;-74
2024/01/17 06:24:00;;;;;;;35.13;15.75;;;;;;;;;;5075348;28;20079;-74
2024/01/17 06:26:26;;;;;;;33.67;16.23;;;;;;;;;;5072078;28;20031;-75
2024/01/17 06:28:52;;;;;;;37.85;15.65;;;;;;;;;;5072583;28;20028;-75
2024/01/17 06:31:25;;;;;;;41.47;15.73;;;;;;;;;;5071566;28;20108;-77
2024/01/17 06:33:54;;;;;;;35.33;15.73;;;;;;;;;;5071929;28;20112;-75
2024/01/17 06:36:20;;;;;;;38.60;15.55;;;;;;;;;;5076298;28;20473;-75
2024/01/17 06:38:46;;;;;;;41.13;16.40;;;;;;;;;;5077073;28;20044;-76
2024/01/17 06:41:12;;;;;;;32.88;15.90;;;;;;;;;;5071735;28;20496;-72
2024/01/17 06:43:38;;;;;;;33.58;15.95;;;;;;;;;;5071996;28;20033;-73
2024/01/17 06:46:04;;;;;;;29.20;14.18;;;;;;;;;;5078855;28;20025;-77
2024/01/17 06:48:31;;;;;;;35.03;15.95;;;;;;;;;;5082479;28;20468;-73
2024/01/17 06:50:57;;;;;;;28.70;14.45;;;;;;;;;;5072076;28;20455;-72
2024/01/17 06:53:23;;;;;;;28.27;13.90;;;;;;;;;;5072819;28;20098;-73
2024/01/17 06:55:49;;;;;;;33.88;14.88;;;;;;;;;;5072570;28;20426;-74
2024/01/17 06:58:15;;;;;;;32.03;13.88;;;;;;;;;;5078437;28;20024;-75
2024/01/17 07:00:42;;;;;;;39.72;14.85;;;;;;;;;;5077916;28;20020;-75
2024/01/17 07:03:08;;;;;;;33.70;14.82;;;;;;;;;;5079044;28;20100;-74
2024/01/17 07:05:34;;;;;;;43.25;14.02;;;;;;;;;;5080834;28;20028;-74
2024/01/17 07:08:00;;;;;;;38.10;13.82;;;;;;;;;;5076043;28;20040;-75
2024/01/17 07:10:26;;;;;;;35.00;13.93;;;;;;;;;;5071921;28;20102;-72
2024/01/17 07:12:52;;;;;;;34.55;13.98;;;;;;;;;;5071496;28;20024;-72
2024/01/17 07:15:18;;;;;;;33.63;13.18;;;;;;;;;;5069960;28;20024;-72
2024/01/17 07:17:44;;;;;;;34.30;13.57;;;;;;;;;;5071812;28;20020;-74
2024/01/17 07:20:12;;;;;;;34.47;13.15;;;;;;;;;;5073898;28;20039;-75
2024/01/17 07:22:41;;;;;;;41.30;13.65;;;;;;;;;;5073734;28;20021;-75
2024/01/17 07:25:10;;;;;;;38.53;12.90;;;;;;;;;;5075903;28;20041;-72
2024/01/17 07:27:37;;;;;;;29.60;12.98;;;;;;;;;;5075543;28;20032;-73
2024/01/17 07:30:03;;;;;;;32.92;13.50;;;;;;;;;;5075195;28;20396;-73
2024/01/17 07:32:29;;;;;;;38.08;12.98;;;;;;;;;;5074049;28;20387;-72
2024/01/17 07:34:55;;;;;;;29.05;13.00;;;;;;;;;;5071358;28;20024;-72
2024/01/17 07:37:21;;;;;;;25.65;11.77;;;;;;;;;;5072355;28;20024;-73
2024/01/17 07:39:47;;;;;;;29.98;13.30;;;;;;;;;;5071184;28;20020;-75
2024/01/17 07:42:14;;;;;;;33.15;12.13;;;;;;;;;;5071226;28;20020;-73
2024/01/17 07:44:40;;;;;;;34.05;12.55;;;;;;;;;;5071884;28;20387;-72
2024/01/17 07:47:06;;;;;;;32.45;11.57;;;;;;;;;;5072838;28;20023;-73
2024/01/17 07:49:36;;;;;;;31.33;12.30;;;;;;;;;;5076617;28;20025;-75
2024/01/17 07:52:02;;;;;;;28.67;12.90;;;;;;;;;;5077448;28;20502;-73
2024/01/17 07:54:28;;;;;;;31.55;11.82;;;;;;;;;;5077049;28;20028;-73
2024/01/17 07:56:54;;;;;;;29.83;12.25;;;;;;;;;;5077280;28;20020;-75
2024/01/17 07:59:20;;;;;;;25.50;10.95;;;;;;;;;;5093352;28;20032;-73
2024/01/17 08:01:48;;;;;;;31.55;11.38;;;;;;;;;;5089316;28;20012;-73
2024/01/17 08:04:14;;;;;;;33.25;12.50;;;;;;;;;;5071286;28;20024;-73
2024/01/17 08:06:40;;;;;;;26.67;10.90;;;;;;;;;;5070709;28;20033;-73
2024/01/17 08:09:20;;;;;;;30.73;12.00;;;;;;;;;;5071800;28;20110;-76
2024/01/17 08:11:46;;;;;;;31.45;11.00;;;;;;;;;;5072878;28;20031;-74
2024/01/17 08:14:12;;;;;;;29.58;10.38;;;;;;;;;;5072357;28;20033;-74
2024/01/17 08:16:38;;;;;;;25.23;9.80;;;;;;;;;;5074890;28;20021;-76
2024/01/17 08:19:05;;;;;;;24.35;11.00;;;;;;;;;;5075740;28;20103;-74
2024/01/17 08:21:31;;;;;;;31.17;10.75;;;;;;;;;;5075853;28;20021;-75
2024/01/17 08:23:59;;;;;;;28.15;11.57;;;;;;;;;;5075748;28;20036;-74
2024/01/17 08:26:25;;;;;;;28.85;11.00;;;;;;;;;;5075923;28;20097;-74
2024/01/17 08:28:52;;;;;;;31.27;11.20;;;;;;;;;;5085889;28;20081;-76
2024/01/17 08:31:47;;;;;;;36.92;12.40;;;;;;;;;;5084069;28;20036;-77
2024/01/17 08:34:13;;;;;;;32.33;11.07;;;;;;;;;;5086722;28;20040;-75
2024/01/17 08:36:40;;;;;;;30.40;10.55;;;;;;;;;;5077466;28;20039;-77
2024/01/17 08:39:06;;;;;;;27.55;10.63;;;;;;;;;;5089112;28;20017;-75
2024/01/17 08:41:33;;;;;;;39.28;11.38;;;;;;;;;;5076536;28;20031;-77
2024/01/17 08:43:59;;;;;;;28.92;10.60;;;;;;;;;;5075462;28;20087;-74
2024/01/17 08:46:27;;;;;;;42.45;10.90;;;;;;;;;;5079605;28;20047;-76
2024/01/17 08:48:54;;;;;;;31.00;11.35;;;;;;;;;;5074600;28;20487;-72
2024/01/17 08:51:21;;;;;;;24.92;10.40;;;;;;;;;;5081242;28;20028;-74
2024/01/17 08:53:47;;;;;;;27.73;10.07;;;;;;;;;;5075839;28;20092;-74
2024/01/17 08:56:15;;;;;;;27.85;9.88;;;;;;;;;;5074780;28;20016;-71
2024/01/17 08:58:42;;;;;;;31.38;10.13;;;;;;;;;;5075840;28;20020;-71
2024/01/17 09:01:08;;;;;;;27.95;10.60;;;;;;;;;;5077366;28;20824;-71
2024/01/17 09:03:34;;;;;;;22.98;9.52;;;;;;;;;;5083314;28;20044;-70
2024/01/17 09:06:01;;;;;;;33.72;9.85;;;;;;;;;;5075888;28;20021;-72
2024/01/17 09:08:27;;;;;;;27.95;9.20;;;;;;;;;;5075605;28;20025;-71
2024/01/17 09:10:53;;;;;;;29.02;9.35;;;;;;;;;;5087131;28;20067;-71
2024/01/17 09:13:19;;;;;;;31.80;9.27;;;;;;;;;;5094218;28;20048;-71
2024/01/17 09:15:45;;;;;;;27.15;9.27;;;;;;;;;;5093689;28;20472;-72
2024/01/17 09:18:11;;;;;;;22.77;9.30;;;;;;;;;;5094545;28;20024;-71
2024/01/17 09:20:37;;;;;;;23.75;8.68;;;;;;;;;;5094763;28;20020;-71
2024/01/17 09:23:03;;;;;;;28.65;9.43;;;;;;;;;;5094522;28;20490;-71
2024/01/17 09:25:30;;;;;;;27.65;9.00;;;;;;;;;;5094007;28;20036;-71
2024/01/17 09:27:56;;;;;;;24.60;9.30;;;;;;;;;;5094361;28;20028;-71
2024/01/17 09:30:22;;;;;;;22.48;8.77;;;;;;;;;;5094449;28;20115;-70
2024/01/17 09:32:48;;;;;;;24.88;8.70;;;;;;;;;;5094383;28;20368;-72
2024/01/17 09:35:14;;;;;;;20.60;9.43;;;;;;;;;;5093484;28;20032;-71
2024/01/17 09:37:40;;;;;;;25.38;9.57;;;;;;;;;;5094520;28;20457;-72
2024/01/17 09:40:08;;;;;;;27.52;9.13;;;;;;;;;;5095264;28;20024;-71
2024/01/17 09:42:34;;;;;;;22.42;8.60;;;;;;;;;;5095522;28;20494;-72
2024/01/17 09:45:01;;;;;;;23.30;8.65;;;;;;;;;;5093400;28;20043;-70
2024/01/17 09:47:27;;;;;;;21.65;10.27;;;;;;;;;;5094092;28;20024;-71
2024/01/17 09:49:53;;;;;;;21.02;8.88;;;;;;;;;;5093606;28;20083;-71
2024/01/17 09:52:22;;;;;;;22.45;8.80;;;;;;;;;;5093961;28;20078;-71
2024/01/17 09:54:50;;;;;;;19.88;8.45;;;;;;;;;;5093458;28;20411;-72
2024/01/17 09:57:22;;;;;;;22.45;8.85;;;;;;;;;;5094250;28;20016;-71
2024/01/17 10:00:09;;;;;;;26.90;8.63;;;;;;;;;;5093760;28;20115;-75
2024/01/17 10:02:38;;;;;;;24.77;9.13;;;;;;;;;;5093465;28;20383;-73
2024/01/17 10:05:12;;;;;;;25.00;9.63;;;;;;;;;;5095813;28;20028;-72
2024/01/17 10:07:38;;;;;;;20.03;9.20;;;;;;;;;;5099339;28;20032;-73
2024/01/17 10:10:04;;;;;;;19.30;7.82;;;;;;;;;;5093535;28;20028;-72
2024/01/17 10:12:30;;;;;;;25.13;9.20;;;;;;;;;;5100402;28;20109;-74
2024/01/17 10:14:56;;;;;;;27.38;8.57;;;;;;;;;;5091643;28;20044;-75
2024/01/17 10:17:22;;;;;;;28.10;10.75;;;;;;;;;;5107158;28;20208;-71
2024/01/17 10:19:48;;;;;;;28.90;10.27;;;;;;;;;;5095038;28;20031;-70
2024/01/17 10:22:14;;;;;;;21.10;8.18;;;;;;;;;;5094003;28;20095;-73
2024/01/17 10:24:40;;;;;;;26.60;8.52;;;;;;;;;;5094011;28;20102;-72
2024/01/17 10:27:06;;;;;;;28.30;9.63;;;;;;;;;;5096039;28;20467;-71
2024/01/17 10:29:37;;;;;;;27.83;8.98;;;;;;;;;;5093869;28;20043;-74
2024/01/17 10:32:03;;;;;;;21.67;8.43;;;;;;;;;;5093616;28;20032;-73
2024/01/17 10:34:29;;;;;;;22.75;8.43;;;;;;;;;;5093013;28;20580;-72
2024/01/17 10:36:55;;;;;;;24.33;8.30;;;;;;;;;;5092804;28;20052;-75
2024/01/17 10:39:22;;;;;;;28.15;8.10;;;;;;;;;;5093304;28;20027;-73
2024/01/17 10:41:51;;;;;;;22.55;8.82;;;;;;;;;;5093202;28;20427;-72
2024/01/17 10:44:18;;;;;;;32.78;9.27;;;;;;;;;;5093362;28;20035;-71
2024/01/17 10:46:47;;;;;;;23.73;9.27;;;;;;;;;;5093309;28;20534;-72
2024/01/17 10:49:13;;;;;;;27.13;8.88;;;;;;;;;;5093023;28;20078;-71
2024/01/17 10:51:41;;;;;;;25.83;9.75;;;;;;;;;;5092930;28;20020;-72
2024/01/17 10:54:10;;;;;;;30.50;9.63;;;;;;;;;;5093072;28;20020;-72
2024/01/17 10:56:38;;;;;;;30.52;11.00;;;;;;;;;;5092839;28;20024;-73
2024/01/17 10:59:05;;;;;;;34.58;10.45;;;;;;;;;;5093388;28;20103;-71
2024/01/17 11:01:32;;;;;;;27.00;10.18;;;;;;;;;;5093404;28;20493;-71
2024/01/17 11:04:01;;;;;;;23.50;8.75;;;;;;;;;;5092865;28;20032;-72
2024/01/17 11:06:27;;;;;;;24.98;9.35;;;;;;;;;;5092567;28;20046;-71
2024/01/17 11:08:54;;;;;;;26.88;9.90;;;;;;;;;;5092720;28;20486;-77
2024/01/17 11:11:23;;;;;;;25.60;9.40;;;;;;;;;;5093792;28;20039;-73
2024/01/17 11:13:50;;;;;;;22.17;8.77;;;;;;;;;;5094553;28;20020;-71
2024/01/17 11:16:16;;;;;;;25.98;9.05;;;;;;;;;;5091294;28;20197;-72
2024/01/17 11:18:46;;;;;;;21.58;9.02;;;;;;;;;;5091696;28;20026;-74
2024/01/17 11:21:11;;;;;;;22.80;8.43;;;;;;;;;;5091393;28;20039;-72
2024/01/17 11:23:50;;;;;;;19.05;8.40;;;;;;;;;;5091344;28;20495;-72
2024/01/17 11:26:16;;;;;;;25.77;9.25;;;;;;;;;;5090184;28;20069;-71
2024/01/17 11:28:47;;;;;;;19.50;8.63;;;;;;;;;;5091214;28;20035;-72
2024/01/17 11:31:28;;;;;;;24.13;9.77;;;;;;;;;;5090563;28;20097;-72
2024/01/17 11:33:54;;;;;;;20.83;8.93;;;;;;;;;;5091110;28;20024;-71
2024/01/17 11:36:39;;;;;;;20.92;8.70;;;;;;;;;;5091396;28;20031;-72
2024/01/17 11:39:31;;;;;;;22.67;8.90;;;;;;;;;;5090808;28;20073;-73
2024/01/17 11:41:58;;;;;;;19.92;8.57;;;;;;;;;;5088751;28;20071;-72
2024/01/17 11:44:24;;;;;;;28.98;9.55;;;;;;;;;;5091133;28;20107;-72
2024/01/17 11:46:51;;;;;;;27.35;10.15;;;;;;;;;;5090946;28;20092;-71
2024/01/17 11:49:27;;;;;;;24.77;9.98;;;;;;;;;;5090405;28;20087;-70
2024/01/17 11:51:53;;;;;;;20.63;9.30;;;;;;;;;;5090406;28;20361;-73
2024/01/17 11:54:19;;;;;;;22.90;9.93;;;;;;;;;;5090253;28;20054;-72
2024/01/17 11:56:45;;;;;;;31.00;11.77;;;;;;;;;;5090329;28;20024;-71
2024/01/17 11:59:12;;;;;;;37.58;11.32;;;;;;;;;;5090815;28;20087;-72
2024/01/17 12:01:38;;;;;;;31.50;10.63;;;;;;;;;;5090382;28;20017;-71
2024/01/17 12:04:11;;;;;;;26.33;10.05;;;;;;;;;;5090519;28;20031;-71
2024/01/17 12:06:38;;;;;;;28.33;10.35;;;;;;;;;;5089692;28;20028;-71
2024/01/17 12:09:07;;;;;;;21.13;8.88;;;;;;;;;;5090580;28;20028;-71
2024/01/17 12:11:33;;;;;;;22.48;10.60;;;;;;;;;;5091219;28;20471;-72
2024/01/17 12:13:59;;;;;;;27.33;9.43;;;;;;;;;;5091777;28;20028;-72
2024/01/17 12:16:25;;;;;;;19.50;9.23;;;;;;;;;;5095320;28;20031;-70
2024/01/17 12:18:58;;;;;;;23.75;9.70;;;;;;;;;;5090006;28;20099;-71
2024/01/17 12:21:24;;;;;;;23.15;10.43;;;;;;;;;;5091672;28;20024;-74
2024/01/17 12:23:50;;;;;;;34.15;10.80;;;;;;;;;;5089687;28;20059;-72
2024/01/17 12:26:16;;;;;;;29.55;9.60;;;;;;;;;;5090125;28;20028;-71
2024/01/17 12:28:42;;;;;;;23.23;9.10;;;;;;;;;;5090327;28;20585;-70
2024/01/17 12:31:08;;;;;;;25.60;9.52;;;;;;;;;;5090076;28;20071;-70
2024/01/17 12:33:34;;;;;;;24.48;10.00;;;;;;;;;;5090069;28;20040;-71
2024/01/17 12:36:00;;;;;;;21.38;9.05;;;;;;;;;;5090796;28;20693;-72
2024/01/17 12:38:30;;;;;;;21.95;9.82;;;;;;;;;;5091271;28;20027;-72
2024/01/17 12:40:57;;;;;;;31.40;9.38;;;;;;;;;;5091945;28;20084;-70
2024/01/17 12:43:25;;;;;;;21.50;9.40;;;;;;;;;;5092793;28;20025;-74
2024/01/17 12:45:51;;;;;;;20.83;9.38;;;;;;;;;;5089279;28;20032;-73
2024/01/17 12:48:17;;;;;;;21.38;9.55;;;;;;;;;;5090342;28;20020;-73
2024/01/17 12:50:45;;;;;;;22.35;9.98;;;;;;;;;;5090340;28;20032;-71
2024/01/17 12:53:12;;;;;;;25.95;10.35;;;;;;;;;;5090121;28;20086;-71
2024/01/17 12:55:39;;;;;;;18.98;9.00;;;;;;;;;;5089508;28;20130;-72
2024/01/17 12:58:05;;;;;;;25.95;10.05;;;;;;;;;;5089787;28;20025;-72
2024/01/17 13:00:31;;;;;;;25.92;9.10;;;;;;;;;;5090248;28;20028;-72
2024/01/17 13:02:57;;;;;;;28.67;9.35;;;;;;;;;;5077285;28;20044;-72
2024/01/17 13:05:23;;;;;;;21.65;8.75;;;;;;;;;;5073415;28;20403;-71
2024/01/17 13:07:49;;;;;;;23.02;9.30;;;;;;;;;;5074655;28;20021;-72
2024/01/17 13:10:16;;;;;;;28.73;14.60;;;;;;;;;;5073354;28;20596;-71
2024/01/17 13:12:42;;;;;;;20.92;9.02;;;;;;;;;;5073038;28;20017;-71
2024/01/17 13:15:12;;;;;;;23.02;9.80;;;;;;;;;;5072429;28;20028;-71
2024/01/17 13:17:44;;;;;;;18.92;9.80;;;;;;;;;;5072997;28;20387;-71
2024/01/17 13:20:15;;;;;;;26.55;10.05;;;;;;;;;;5073820;28;20024;-73
2024/01/17 13:22:41;;;;;;;22.60;9.15;;;;;;;;;;5073899;28;20028;-71
2024/01/17 13:25:08;;;;;;;27.45;10.30;;;;;;;;;;5073337;28;20085;-71
2024/01/17 13:27:34;;;;;;;23.10;10.10;;;;;;;;;;5074093;28;20365;-71
2024/01/17 13:30:03;;;;;;;25.20;9.63;;;;;;;;;;5073757;28;20036;-72
2024/01/17 13:32:30;;;;;;;26.58;10.00;;;;;;;;;;5074614;28;20028;-74
2024/01/17 13:34:56;;;;;;;20.15;8.77;;;;;;;;;;5075267;28;20016;-75
2024/01/17 13:37:22;;;;;;;21.92;9.50;;;;;;;;;;5074556;28;20341;-77
2024/01/17 13:39:48;;;;;;;18.33;9.55;;;;;;;;;;5074527;28;20025;-75
2024/01/17 13:42:14;;;;;;;22.55;9.40;;;;;;;;;;5074859;28;20025;-77
2024/01/17 13:44:40;;;;;;;25.05;9.90;;;;;;;;;;5073989;28;20460;-73
2024/01/17 13:47:06;;;;;;;22.85;9.32;;;;;;;;;;5072289;28;20035;-72
2024/01/17 13:49:36;;;;;;;19.45;9.50;;;;;;;;;;5073776;28;20428;-72
2024/01/17 13:52:02;;;;;;;23.17;9.55;;;;;;;;;;5073872;28;20028;-72
2024/01/17 13:54:29;;;;;;;23.25;9.63;;;;;;;;;;5071133;28;20078;-69
2024/01/17 13:56:55;;;;;;;29.90;11.50;;;;;;;;;;5073669;28;20024;-71
2024/01/17 13:59:21;;;;;;;21.67;9.98;;;;;;;;;;5073789;28;20036;-72
2024/01/17 14:01:48;;;;;;;24.42;10.73;;;;;;;;;;5069392;28;20031;-71
2024/01/17 14:04:14;;;;;;;24.23;9.65;;;;;;;;;;5073861;28;20488;-71
2024/01/17 14:06:40;;;;;;;24.08;10.80;;;;;;;;;;5072994;28;20067;-71
2024/01/17 14:09:07;;;;;;;21.67;10.20;;;;;;;;;;5071669;28;20032;-72
2024/01/17 14:11:38;;;;;;;19.65;9.57;;;;;;;;;;5073189;28;20021;-70
2024/01/17 14:14:05;;;;;;;22.30;10.65;;;;;;;;;;5071724;28;20511;-71
2024/01/17 14:16:31;;;;;;;30.70;14.20;;;;;;;;;;5072212;28;20083;-72
2024/01/17 14:18:58;;;;;;;22.77;9.63;;;;;;;;;;5072432;28;20028;-72
2024/01/17 14:21:24;;;;;;;20.50;9.23;;;;;;;;;;5072873;28;20025;-71